Time;durP1;ratioP1;P1;durP2;ratioP2;P2;SDS_P1;SDS_P2;PMS_P1;PMS_P2;Temp;Humidity;BMP_temperature;BMP_pressure;BME280_temperature;BME280_humidity;BME280_pressure;Samples;Min_cycle;Max_cycle;Signal;HPM_P1;HPM_P2
2024/02/02 00:00:00;;;;;;;4.88;3.03;;;;;;;;;;5120679;27;20511;-79
2024/02/02 00:02:26;;;;;;;0.52;0.52;;;;;;;;;;5137668;27;20038;-78
2024/02/02 00:04:54;;;;;;;0.65;0.65;;;;;;;;;;5141032;27;20043;-78
2024/02/02 00:07:22;;;;;;;0.50;0.50;;;;;;;;;;5140803;27;20510;-79
2024/02/02 00:09:53;;;;;;;1.65;1.60;;;5.20;99.90;;;;;;5145980;27;20111;-79
2024/02/02 00:12:19;;;;;;;0.50;0.50;;;5.30;99.90;;;;;;5147861;27;20034;-80
2024/02/02 00:14:48;;;;;;;0.68;0.68;;;5.20;99.90;;;;;;5144856;27;20407;-81
2024/02/02 00:17:14;;;;;;;0.50;0.50;;;5.20;99.90;;;;;;5145845;27;20029;-80
2024/02/02 00:19:41;;;;;;;0.50;0.50;;;5.30;99.90;;;;;;5145717;27;20023;-79
2024/02/02 00:22:07;;;;;;;0.50;0.50;;;5.30;99.90;;;;;;5144561;27;20068;-79
2024/02/02 00:24:34;;;;;;;;;;;5.30;99.90;;;;;;5146537;27;20517;-80
2024/02/02 00:27:00;;;;;;;0.50;0.50;;;5.30;99.90;;;;;;5143447;27;19919;-80
2024/02/02 00:29:26;;;;;;;0.93;0.93;;;5.30;99.90;;;;;;5148494;27;20476;-80
2024/02/02 00:31:52;;;;;;;0.60;0.60;;;5.30;99.90;;;;;;5123712;27;20042;-79
2024/02/02 00:34:21;;;;;;;1.10;0.93;;;5.30;99.90;;;;;;5123352;27;20049;-79
2024/02/02 00:36:47;;;;;;;0.60;0.60;;;5.40;99.90;;;;;;5118723;27;20113;-79
2024/02/02 00:39:13;;;;;;;14.45;1.77;;;5.40;99.90;;;;;;5152970;27;20055;-80
2024/02/02 00:41:41;;;;;;;0.60;0.60;;;5.40;99.90;;;;;;5111272;27;20796;-79
2024/02/02 00:44:07;;;;;;;0.50;0.50;;;5.20;99.90;;;;;;5130790;27;20038;-81
2024/02/02 00:46:42;;;;;;;0.50;0.50;;;5.40;99.90;;;;;;5111912;27;20163;-80
2024/02/02 00:49:10;;;;;;;0.70;0.70;;;5.40;99.90;;;;;;5146840;27;20059;-79
2024/02/02 00:51:38;;;;;;;;;;;5.40;99.90;;;;;;5125315;27;20035;-81
2024/02/02 00:54:04;;;;;;;0.63;0.63;;;5.40;99.90;;;;;;5152640;27;19941;-86
2024/02/02 00:56:30;;;;;;;0.52;0.52;;;5.50;99.90;;;;;;5134951;27;20043;-89
2024/02/02 00:58:55;;;;;;;0.80;0.80;;;5.50;99.90;;;;;;5157656;27;20042;-87
2024/02/02 01:01:21;;;;;;;0.60;0.60;;;5.50;99.90;;;;;;5156404;27;20070;-88
2024/02/02 01:03:47;;;;;;;0.60;0.60;;;5.50;99.90;;;;;;5125164;27;20045;-87
2024/02/02 01:06:12;;;;;;;1.05;0.95;;;5.60;99.90;;;;;;5156560;27;20039;-87
2024/02/02 01:08:38;;;;;;;0.60;0.60;;;5.60;99.90;;;;;;5156816;27;20062;-86
2024/02/02 01:11:04;;;;;;;1.23;1.17;;;5.60;99.90;;;;;;5140236;27;20043;-87
2024/02/02 01:13:31;;;;;;;0.70;0.70;;;5.60;99.90;;;;;;5159043;27;20034;-86
2024/02/02 01:15:57;;;;;;;1.33;1.33;;;5.60;99.90;;;;;;5127874;27;20471;-89
2024/02/02 01:18:23;;;;;;;;;;;5.60;99.90;;;;;;5120429;27;20161;-89
2024/02/02 01:20:50;;;;;;;0.43;0.43;;;5.60;99.90;;;;;;5154002;27;19926;-90
2024/02/02 01:23:16;;;;;;;0.60;0.60;;;5.70;99.90;;;;;;5151144;27;20035;-87
2024/02/02 01:25:42;;;;;;;0.60;0.60;;;5.70;99.90;;;;;;5157114;27;20592;-90
2024/02/02 01:28:13;;;;;;;0.82;0.82;;;5.60;99.90;;;;;;5165810;27;20122;-88
2024/02/02 01:30:40;;;;;;;1.75;1.45;;;5.60;99.90;;;;;;5159287;27;20066;-86
2024/02/02 01:33:06;;;;;;;0.88;0.88;;;5.60;99.90;;;;;;5157355;27;20050;-88
2024/02/02 01:35:38;;;;;;;0.70;0.70;;;5.60;99.90;;;;;;5135063;27;20042;-89
2024/02/02 01:38:04;;;;;;;1.20;1.20;;;5.60;99.90;;;;;;5153748;27;20510;-89
2024/02/02 01:40:31;;;;;;;0.60;0.60;;;5.60;99.90;;;;;;5138428;27;20063;-89
2024/02/02 01:42:56;;;;;;;0.60;0.60;;;5.70;99.90;;;;;;5138063;27;20039;-87
2024/02/02 01:45:22;;;;;;;12.88;1.30;;;5.70;99.90;;;;;;5152222;27;20038;-88
2024/02/02 01:47:48;;;;;;;0.80;0.80;;;5.70;99.90;;;;;;5166831;27;20030;-87
2024/02/02 01:50:14;;;;;;;0.93;0.93;;;5.70;99.90;;;;;;5141170;27;20023;-88
2024/02/02 01:52:39;;;;;;;3.63;2.00;;;5.70;99.90;;;;;;5152296;27;20046;-88
2024/02/02 01:55:06;;;;;;;1.35;1.25;;;5.70;99.90;;;;;;5159215;27;20062;-90
2024/02/02 01:57:33;;;;;;;0.50;0.50;;;5.70;99.90;;;;;;5125248;27;20058;-88
2024/02/02 02:00:00;;;;;;;0.40;0.40;;;5.70;99.90;;;;;;5155011;27;20126;-91
2024/02/02 02:02:25;;;;;;;;;;;5.70;99.90;;;;;;5153826;27;20043;-80
2024/02/02 02:04:51;;;;;;;0.50;0.50;;;5.70;99.90;;;;;;5142718;27;19918;-81
2024/02/02 02:07:19;;;;;;;0.57;0.57;;;5.70;99.90;;;;;;5146326;27;20385;-81
2024/02/02 02:09:45;;;;;;;0.77;0.77;;;5.70;99.90;;;;;;5140590;27;20074;-80
2024/02/02 02:12:18;;;;;;;0.70;0.70;;;5.80;99.90;;;;;;5138716;27;20076;-78
2024/02/02 02:14:47;;;;;;;0.50;0.50;;;5.70;99.90;;;;;;5137185;27;20039;-78
2024/02/02 02:17:15;;;;;;;0.60;0.60;;;5.80;99.90;;;;;;5144344;27;20043;-81
2024/02/02 02:19:49;;;;;;;1.98;1.77;;;5.70;99.90;;;;;;5138801;27;20060;-77
2024/02/02 02:22:14;;;;;;;0.40;0.40;;;5.80;99.90;;;;;;5122460;27;20058;-79
2024/02/02 02:24:40;;;;;;;1.90;1.80;;;5.70;99.90;;;;;;5138755;27;20050;-78
2024/02/02 02:27:07;;;;;;;0.50;0.50;;;5.80;99.90;;;;;;5126194;27;20042;-79
2024/02/02 02:29:33;;;;;;;0.50;0.50;;;5.80;99.90;;;;;;5141893;27;20035;-79
2024/02/02 02:32:01;;;;;;;0.60;0.60;;;5.80;99.90;;;;;;5124420;27;20071;-81
2024/02/02 02:34:33;;;;;;;0.40;0.40;;;5.80;99.90;;;;;;5138994;27;20035;-80
2024/02/02 02:36:59;;;;;;;0.65;0.65;;;5.80;99.90;;;;;;5123115;27;20393;-79
2024/02/02 02:39:24;;;;;;;0.50;0.50;;;5.80;99.90;;;;;;5140584;27;20511;-79
2024/02/02 02:41:51;;;;;;;0.50;0.50;;;5.70;99.90;;;;;;5124651;27;20069;-80
2024/02/02 02:44:18;;;;;;;0.60;0.60;;;5.80;99.90;;;;;;5140867;27;20482;-79
2024/02/02 02:46:45;;;;;;;0.98;0.98;;;5.70;99.90;;;;;;5145530;27;20047;-81
2024/02/02 02:49:11;;;;;;;1.00;1.00;;;5.70;99.90;;;;;;5143687;27;20045;-80
2024/02/02 02:51:37;;;;;;;0.50;0.50;;;5.70;99.90;;;;;;5104194;27;20488;-78
2024/02/02 02:54:04;;;;;;;1.02;0.90;;;5.70;99.90;;;;;;5137848;27;20049;-78
2024/02/02 02:56:30;;;;;;;0.95;0.60;;;5.70;99.90;;;;;;5106323;27;20043;-79
2024/02/02 02:58:56;;;;;;;0.90;0.90;;;5.70;99.90;;;;;;5105096;27;20050;-79
2024/02/02 03:01:22;;;;;;;0.70;0.70;;;5.70;99.90;;;;;;5117911;27;20127;-79
2024/02/02 03:03:47;;;;;;;0.60;0.60;;;5.70;99.90;;;;;;5141003;27;20502;-78
2024/02/02 03:06:16;;;;;;;0.95;0.95;;;5.70;99.90;;;;;;5145923;27;20076;-83
2024/02/02 03:08:45;;;;;;;0.57;0.57;;;5.60;99.90;;;;;;5140454;27;20143;-79
2024/02/02 03:11:10;;;;;;;0.60;0.60;;;5.60;99.90;;;;;;5142979;27;20086;-78
2024/02/02 03:13:36;;;;;;;0.40;0.40;;;5.60;99.90;;;;;;5144037;27;20427;-78
2024/02/02 03:16:02;;;;;;;1.67;1.20;;;5.70;99.90;;;;;;5140564;27;20035;-78
2024/02/02 03:18:28;;;;;;;0.60;0.60;;;5.70;99.90;;;;;;5139449;27;20510;-79
2024/02/02 03:21:02;;;;;;;0.50;0.50;;;5.60;99.90;;;;;;5111192;27;20034;-82
2024/02/02 03:23:27;;;;;;;0.40;0.40;;;5.60;99.90;;;;;;5140008;27;20080;-80
2024/02/02 03:25:59;;;;;;;0.80;0.80;;;5.60;99.90;;;;;;5138807;27;20164;-81
2024/02/02 03:28:31;;;;;;;0.93;0.93;;;5.70;99.90;;;;;;5122654;27;20383;-79
2024/02/02 03:31:03;;;;;;;0.95;0.95;;;5.70;99.90;;;;;;5141150;27;20033;-80
2024/02/02 03:33:29;;;;;;;;;;;5.60;99.90;;;;;;5142806;27;20114;-78
2024/02/02 03:35:54;;;;;;;0.57;0.57;;;5.60;99.90;;;;;;5146739;27;20044;-79
2024/02/02 03:38:22;;;;;;;0.70;0.70;;;5.70;99.90;;;;;;5133333;27;20058;-79
2024/02/02 03:40:48;;;;;;;0.50;0.50;;;5.70;99.90;;;;;;5125762;27;20122;-80
2024/02/02 03:43:14;;;;;;;0.85;0.85;;;5.70;99.90;;;;;;5121539;27;20063;-78
2024/02/02 03:45:39;;;;;;;1.20;1.20;;;5.70;99.90;;;;;;5136703;27;20062;-79
2024/02/02 03:48:14;;;;;;;0.90;0.90;;;5.70;99.90;;;;;;5140810;27;20068;-79
2024/02/02 03:50:41;;;;;;;;;;;5.70;99.90;;;;;;5135520;27;20067;-80
2024/02/02 03:53:07;;;;;;;0.55;0.55;;;5.70;99.90;;;;;;5146865;27;19915;-78
2024/02/02 03:55:34;;;;;;;0.52;0.52;;;5.70;99.90;;;;;;5110554;27;20039;-81
2024/02/02 03:58:00;;;;;;;0.70;0.70;;;5.70;99.90;;;;;;5140362;27;20047;-81
2024/02/02 04:00:26;;;;;;;2.20;2.05;;;5.70;99.90;;;;;;5137391;27;20038;-81
2024/02/02 04:02:52;;;;;;;0.50;0.50;;;5.70;99.90;;;;;;5138817;27;20046;-79
2024/02/02 04:05:22;;;;;;;1.02;1.02;;;5.80;99.90;;;;;;5119468;27;20536;-80
2024/02/02 04:07:51;;;;;;;1.95;1.85;;;5.40;99.90;;;;;;5109913;27;20037;-79
2024/02/02 04:10:17;;;;;;;0.70;0.70;;;5.80;99.90;;;;;;5122346;27;20442;-80
2024/02/02 04:12:49;;;;;;;2.22;2.13;;;5.80;99.90;;;;;;5115807;27;20050;-79
2024/02/02 04:15:15;;;;;;;;;;;5.80;99.90;;;;;;5144604;27;20507;-79
2024/02/02 04:17:41;;;;;;;0.80;0.80;;;5.80;99.90;;;;;;5139941;27;19970;-82
2024/02/02 04:20:07;;;;;;;0.60;0.60;;;5.80;99.90;;;;;;5133647;27;20400;-79
2024/02/02 04:22:33;;;;;;;1.20;1.20;;;5.80;99.90;;;;;;5137744;27;20038;-80
2024/02/02 04:24:59;;;;;;;0.60;0.60;;;5.80;99.90;;;;;;5137124;27;20062;-77
2024/02/02 04:27:26;;;;;;;0.60;0.60;;;5.80;99.90;;;;;;5139643;27;20036;-81
2024/02/02 04:29:52;;;;;;;0.68;0.68;;;5.80;99.90;;;;;;5141185;27;20039;-79
2024/02/02 04:32:17;;;;;;;;;;;5.70;99.90;;;;;;5143770;27;20054;-80
2024/02/02 04:34:43;;;;;;;3.60;2.47;;;5.80;99.90;;;;;;5121409;27;19938;-78
2024/02/02 04:37:10;;;;;;;1.27;1.27;;;5.70;99.90;;;;;;5122855;27;20060;-78
2024/02/02 04:39:35;;;;;;;0.77;0.77;;;5.80;99.90;;;;;;5142592;27;20042;-79
2024/02/02 04:42:05;;;;;;;0.63;0.63;;;5.80;99.90;;;;;;5139912;27;20062;-79
2024/02/02 04:44:36;;;;;;;0.57;0.57;;;5.80;99.90;;;;;;5137674;27;20470;-82
2024/02/02 04:47:05;;;;;;;1.27;0.90;;;5.80;99.90;;;;;;5139103;27;20515;-79
2024/02/02 04:49:31;;;;;;;0.60;0.60;;;5.80;99.90;;;;;;5138246;27;20031;-79
2024/02/02 04:51:56;;;;;;;0.60;0.60;;;5.80;99.90;;;;;;5138608;27;20499;-81
2024/02/02 04:54:22;;;;;;;2.55;2.45;;;5.80;99.90;;;;;;5144413;27;20047;-82
2024/02/02 04:56:48;;;;;;;0.90;0.90;;;5.80;99.90;;;;;;5123437;27;20031;-82
2024/02/02 04:59:13;;;;;;;1.75;0.80;;;5.80;99.90;;;;;;5124195;27;20042;-79
2024/02/02 05:01:41;;;;;;;;;;;5.80;99.90;;;;;;5141828;27;20057;-79
2024/02/02 05:04:07;;;;;;;0.90;0.90;;;5.70;99.90;;;;;;5104893;27;19958;-79
2024/02/02 05:06:33;;;;;;;1.67;1.58;;;5.80;99.90;;;;;;5124114;27;20131;-81
2024/02/02 05:08:59;;;;;;;0.50;0.50;;;5.80;99.90;;;;;;5123432;27;20043;-80
2024/02/02 05:11:25;;;;;;;0.63;0.63;;;5.80;99.90;;;;;;5145304;27;20043;-78
2024/02/02 05:13:52;;;;;;;1.08;1.08;;;5.80;99.90;;;;;;5144686;27;20510;-78
2024/02/02 05:16:17;;;;;;;3.50;3.30;;;5.90;99.90;;;;;;5119168;27;20053;-81
2024/02/02 05:18:43;;;;;;;;;;;5.90;99.90;;;;;;5146277;27;20453;-80
2024/02/02 05:21:09;;;;;;;0.60;0.60;;;5.90;99.90;;;;;;5146840;27;19941;-79
2024/02/02 05:23:36;;;;;;;0.60;0.60;;;5.90;99.90;;;;;;5145946;27;20046;-78
2024/02/02 05:26:02;;;;;;;0.50;0.50;;;7.40;99.90;;;;;;5146970;27;20431;-80
2024/02/02 05:28:32;;;;;;;2.17;1.02;;;5.90;99.90;;;;;;5142192;27;20058;-83
2024/02/02 05:31:01;;;;;;;2.92;2.72;;;5.90;99.90;;;;;;5144375;27;20484;-79
2024/02/02 05:33:27;;;;;;;0.60;0.60;;;5.90;99.90;;;;;;5108186;27;20071;-78
2024/02/02 05:35:52;;;;;;;10.88;2.33;;;5.90;99.90;;;;;;5146949;27;20038;-81
2024/02/02 05:38:25;;;;;;;0.60;0.60;;;5.90;99.90;;;;;;5122091;27;20091;-82
2024/02/02 05:40:50;;;;;;;1.25;1.25;;;5.90;99.90;;;;;;5141978;27;20122;-78
2024/02/02 05:43:16;;;;;;;1.27;1.27;;;5.90;99.90;;;;;;5143813;27;20130;-82
2024/02/02 05:45:54;;;;;;;0.55;0.55;;;5.90;99.90;;;;;;5114514;27;20073;-79
2024/02/02 05:48:19;;;;;;;1.20;1.20;;;6.00;99.90;;;;;;5123060;27;20047;-79
2024/02/02 05:50:47;;;;;;;0.68;0.68;;;6.10;99.90;;;;;;5122685;27;20049;-79
2024/02/02 05:53:16;;;;;;;0.50;0.50;;;6.10;99.90;;;;;;5144676;27;20042;-79
2024/02/02 05:55:42;;;;;;;4.20;3.22;;;6.10;99.90;;;;;;5144330;27;20038;-79
2024/02/02 05:58:08;;;;;;;0.80;0.80;;;6.10;99.90;;;;;;5138775;27;20054;-78
2024/02/02 06:00:35;;;;;;;0.50;0.50;;;6.10;99.90;;;;;;5144322;27;20034;-77
2024/02/02 06:03:01;;;;;;;0.57;0.57;;;6.10;99.90;;;;;;5137518;27;20500;-78
2024/02/02 06:05:29;;;;;;;0.65;0.65;;;6.10;99.90;;;;;;5140750;27;20071;-79
2024/02/02 06:08:06;;;;;;;0.60;0.60;;;6.10;99.90;;;;;;5143415;27;20097;-78
2024/02/02 06:10:32;;;;;;;0.68;0.68;;;6.10;99.90;;;;;;5143268;27;20039;-77
2024/02/02 06:13:01;;;;;;;1.42;0.80;;;6.20;99.90;;;;;;5144697;27;20034;-78
2024/02/02 06:15:27;;;;;;;1.52;1.25;;;6.20;99.90;;;;;;5114825;27;20108;-79
2024/02/02 06:17:52;;;;;;;0.60;0.60;;;6.20;99.90;;;;;;5142036;27;20124;-78
2024/02/02 06:20:18;;;;;;;0.60;0.60;;;6.20;99.90;;;;;;5108540;27;20047;-79
2024/02/02 06:22:45;;;;;;;1.15;1.08;;;6.20;99.90;;;;;;5140628;27;20047;-78
2024/02/02 06:25:14;;;;;;;1.25;1.25;;;6.20;99.90;;;;;;5137730;27;20044;-79
2024/02/02 06:27:40;;;;;;;0.70;0.70;;;6.20;99.90;;;;;;5127105;27;20050;-79
2024/02/02 06:30:09;;;;;;;0.65;0.65;;;6.20;99.90;;;;;;5139165;27;20112;-80
2024/02/02 06:32:45;;;;;;;0.30;0.30;;;6.20;99.90;;;;;;5143813;27;20031;-80
2024/02/02 06:35:12;;;;;;;0.60;0.60;;;6.20;99.90;;;;;;5136474;27;20047;-78
2024/02/02 06:37:42;;;;;;;0.50;0.50;;;6.20;99.90;;;;;;5145045;27;20065;-78
2024/02/02 06:40:09;;;;;;;0.70;0.70;;;6.20;99.90;;;;;;5116522;27;20042;-79
2024/02/02 06:42:34;;;;;;;0.52;0.52;;;6.20;99.90;;;;;;5124652;27;20061;-80
2024/02/02 06:45:00;;;;;;;0.60;0.60;;;6.20;99.90;;;;;;5122377;27;20035;-82
2024/02/02 06:47:26;;;;;;;1.35;1.25;;;6.20;99.90;;;;;;5145591;27;20037;-78
2024/02/02 06:49:52;;;;;;;12.88;4.18;;;6.20;99.90;;;;;;5143142;27;20039;-79
2024/02/02 06:52:25;;;;;;;0.43;0.43;;;6.20;99.90;;;;;;5131846;27;20074;-78
2024/02/02 06:54:50;;;;;;;1.92;1.90;;;6.20;99.90;;;;;;5149179;27;20035;-78
2024/02/02 06:57:17;;;;;;;0.60;0.60;;;6.20;99.90;;;;;;5152107;27;20035;-80
2024/02/02 06:59:49;;;;;;;1.65;1.55;;;6.20;99.90;;;;;;5148954;27;20119;-80
2024/02/02 07:02:24;;;;;;;0.55;0.55;;;6.10;99.90;;;;;;5150169;27;20522;-78
2024/02/02 07:04:53;;;;;;;0.52;0.52;;;6.00;99.90;;;;;;5145981;27;20104;-79
2024/02/02 07:07:20;;;;;;;0.60;0.60;;;5.90;99.90;;;;;;5133641;27;20039;-80
2024/02/02 07:09:56;;;;;;;1.45;1.45;;;5.90;99.90;;;;;;5137646;27;20106;-77
2024/02/02 07:13:01;;;;;;;2.03;0.98;;;5.80;99.90;;;;;;5147290;27;20066;-82
2024/02/02 07:15:40;;;;;;;3.13;2.60;;;5.70;99.90;;;;;;5152423;27;20034;-81
2024/02/02 07:18:35;;;;;;;0.73;0.73;;;5.70;99.90;;;;;;5148544;27;20058;-79
2024/02/02 07:21:04;;;;;;;0.50;0.50;;;5.70;99.90;;;;;;5143155;27;20035;-80
2024/02/02 07:23:41;;;;;;;3.03;2.78;;;5.70;99.90;;;;;;5142949;27;20056;-81
2024/02/02 07:26:19;;;;;;;2.95;1.35;;;5.70;99.90;;;;;;5150585;27;20558;-79
2024/02/02 07:28:45;;;;;;;1.02;1.02;;;5.60;99.90;;;;;;5145044;27;20042;-80
2024/02/02 07:31:15;;;;;;;0.50;0.50;;;5.60;99.90;;;;;;5152463;27;20039;-80
2024/02/02 07:33:47;;;;;;;0.60;0.60;;;5.60;99.90;;;;;;5115652;27;20133;-80
2024/02/02 07:36:30;;;;;;;1.95;1.85;;;5.50;99.90;;;;;;5152640;27;20046;-81
2024/02/02 07:38:59;;;;;;;0.50;0.50;;;5.70;99.90;;;;;;5158736;27;20043;-84
2024/02/02 07:41:26;;;;;;;0.85;0.85;;;5.60;99.90;;;;;;5131329;27;20191;-83
2024/02/02 07:43:59;;;;;;;0.68;0.68;;;5.60;99.90;;;;;;5152963;27;20407;-82
2024/02/02 07:46:24;;;;;;;0.55;0.55;;;5.60;99.90;;;;;;5152651;27;20038;-86
2024/02/02 07:48:54;;;;;;;0.50;0.50;;;5.60;99.90;;;;;;5155244;27;20031;-83
2024/02/02 07:51:26;;;;;;;0.98;0.98;;;5.70;99.90;;;;;;5148312;27;20046;-82
2024/02/02 07:53:53;;;;;;;0.70;0.70;;;5.70;99.90;;;;;;5139159;27;21341;-81
2024/02/02 07:56:23;;;;;;;0.60;0.60;;;5.70;99.90;;;;;;5154587;27;20045;-82
2024/02/02 07:58:49;;;;;;;1.33;1.33;;;5.70;99.90;;;;;;5149985;27;20078;-85
2024/02/02 08:01:15;;;;;;;;;;;5.70;99.90;;;;;;5114570;27;20040;-83
2024/02/02 08:03:49;;;;;;;0.50;0.50;;;5.80;99.90;;;;;;5136356;27;20487;-81
2024/02/02 08:06:15;;;;;;;1.27;1.27;;;5.80;99.90;;;;;;5131606;27;20062;-82
2024/02/02 08:08:50;;;;;;;0.47;0.47;;;5.90;99.90;;;;;;5135788;27;20046;-82
2024/02/02 08:11:37;;;;;;;1.05;1.05;;;5.90;99.90;;;;;;5154454;27;20061;-83
2024/02/02 08:14:10;;;;;;;0.68;0.68;;;5.90;99.90;;;;;;5153355;27;20046;-81
2024/02/02 08:16:42;;;;;;;0.60;0.60;;;6.00;99.90;;;;;;5151015;27;20446;-80
2024/02/02 08:19:08;;;;;;;0.95;0.95;;;6.10;99.90;;;;;;5151308;27;20038;-83
2024/02/02 08:21:38;;;;;;;0.47;0.47;;;6.10;99.90;;;;;;5151664;27;20046;-83
2024/02/02 08:24:05;;;;;;;1.23;1.23;;;6.20;99.90;;;;;;5152850;27;20085;-79
2024/02/02 08:26:32;;;;;;;0.85;0.80;;;6.10;99.90;;;;;;5148378;27;20066;-81
2024/02/02 08:28:59;;;;;;;0.35;0.35;;;6.20;99.90;;;;;;5152688;27;20047;-82
2024/02/02 08:31:25;;;;;;;0.50;0.50;;;6.20;99.90;;;;;;5139815;27;20053;-80
2024/02/02 08:33:51;;;;;;;0.73;0.73;;;6.30;99.90;;;;;;5134237;27;20053;-81
2024/02/02 08:36:21;;;;;;;0.90;0.90;;;6.30;99.90;;;;;;5154196;27;20548;-81
2024/02/02 08:38:46;;;;;;;;;;;6.30;99.90;;;;;;5144842;27;20069;-82
2024/02/02 08:41:20;;;;;;;0.73;0.73;;;6.40;99.90;;;;;;5155145;27;19923;-82
2024/02/02 08:43:51;;;;;;;1.33;1.33;;;6.40;99.90;;;;;;5159471;27;20099;-79
2024/02/02 08:46:21;;;;;;;0.90;0.90;;;6.40;99.90;;;;;;5159558;27;20383;-81
2024/02/02 08:48:55;;;;;;;0.93;0.93;;;6.50;99.90;;;;;;5159356;27;20046;-83
2024/02/02 08:51:36;;;;;;;1.15;1.15;;;6.40;99.90;;;;;;5141547;27;20035;-81
2024/02/02 08:54:28;;;;;;;0.68;0.68;;;6.40;99.90;;;;;;5135343;27;20507;-79
2024/02/02 08:57:19;;;;;;;0.52;0.52;;;6.40;99.90;;;;;;5158301;27;20050;-80
2024/02/02 08:59:54;;;;;;;1.63;1.52;;;6.40;99.90;;;;;;5161453;27;20045;-83
2024/02/02 09:02:27;;;;;;;0.70;0.70;;;6.50;99.90;;;;;;5155547;27;20062;-82
2024/02/02 09:05:09;;;;;;;0.73;0.73;;;6.50;99.90;;;;;;5157772;27;21623;-83
2024/02/02 09:07:40;;;;;;;0.57;0.57;;;6.50;99.90;;;;;;5160337;27;20042;-83
2024/02/02 09:10:37;;;;;;;0.60;0.60;;;6.50;99.90;;;;;;5143698;27;20043;-82
2024/02/02 09:13:04;;;;;;;;;;;6.50;99.90;;;;;;5162197;27;20531;-81
2024/02/02 09:15:34;;;;;;;0.47;0.47;;;6.60;99.90;;;;;;5157158;27;19961;-86
2024/02/02 09:18:02;;;;;;;3.78;1.85;;;6.60;99.90;;;;;;5164209;27;20496;-81
2024/02/02 09:20:45;;;;;;;0.60;0.60;;;6.60;99.90;;;;;;5142667;27;20079;-83
2024/02/02 09:23:13;;;;;;;0.60;0.60;;;6.70;99.90;;;;;;5178562;27;20483;-80
2024/02/02 09:25:46;;;;;;;0.60;0.60;;;6.70;99.90;;;;;;5127775;27;20050;-82
2024/02/02 09:28:23;;;;;;;2.25;1.20;;;6.70;99.90;;;;;;5156239;27;20035;-80
2024/02/02 09:30:58;;;;;;;0.70;0.70;;;6.80;99.90;;;;;;5161834;27;20491;-83
2024/02/02 09:33:46;;;;;;;0.50;0.50;;;6.80;99.90;;;;;;5162730;27;20039;-83
2024/02/02 09:36:12;;;;;;;2.35;2.25;;;6.80;99.90;;;;;;5136524;27;20039;-84
2024/02/02 09:38:39;;;;;;;0.60;0.60;;;6.90;99.90;;;;;;5162360;27;20049;-83
2024/02/02 09:41:26;;;;;;;1.33;1.33;;;7.00;99.90;;;;;;5157543;27;20035;-82
2024/02/02 09:44:15;;;;;;;0.57;0.57;;;7.10;99.90;;;;;;5158796;27;20042;-84
2024/02/02 09:47:15;;;;;;;0.52;0.52;;;7.10;99.90;;;;;;5161875;27;20588;-84
2024/02/02 09:50:12;;;;;;;0.40;0.40;;;7.10;99.90;;;;;;5144889;27;20038;-83
2024/02/02 09:53:15;;;;;;;0.45;0.45;;;7.20;99.90;;;;;;5160615;27;20054;-82
2024/02/02 09:55:57;;;;;;;0.40;0.40;;;7.20;99.90;;;;;;5149567;27;20043;-82
2024/02/02 09:58:26;;;;;;;0.50;0.50;;;7.30;99.90;;;;;;5157321;27;20173;-83
2024/02/02 10:01:07;;;;;;;0.70;0.70;;;7.30;99.90;;;;;;5154159;27;20083;-80
2024/02/02 10:04:00;;;;;;;0.85;0.85;;;7.40;99.90;;;;;;5135949;27;20042;-81
2024/02/02 10:06:38;;;;;;;1.02;1.02;;;7.40;99.90;;;;;;5142392;27;20047;-81
2024/02/02 10:09:43;;;;;;;0.98;0.98;;;7.50;99.90;;;;;;5163144;27;20101;-81
2024/02/02 10:12:33;;;;;;;0.68;0.68;;;7.50;99.90;;;;;;5076542;28;20039;-83
2024/02/02 10:15:32;;;;;;;0.47;0.47;;;7.60;99.90;;;;;;5143747;27;20051;-82
2024/02/02 10:18:31;;;;;;;0.60;0.60;;;7.60;99.90;;;;;;5145107;27;20035;-80
2024/02/02 10:21:25;;;;;;;0.70;0.70;;;7.70;99.90;;;;;;5141942;27;20034;-82
2024/02/02 10:24:26;;;;;;;6.70;2.88;;;7.70;99.90;;;;;;5150975;27;20042;-78
2024/02/02 10:27:04;;;;;;;0.40;0.40;;;7.80;99.90;;;;;;5138987;27;20074;-78
2024/02/02 10:29:51;;;;;;;0.77;0.77;;;7.80;99.90;;;;;;5139841;27;20955;-83
2024/02/02 10:32:29;;;;;;;0.80;0.80;;;7.90;99.90;;;;;;5122096;27;20038;-83
2024/02/02 10:35:36;;;;;;;0.57;0.57;;;7.90;99.90;;;;;;5154666;27;20058;-81
2024/02/02 10:38:35;;;;;;;1.52;1.42;;;7.90;99.90;;;;;;5146040;27;20428;-81
2024/02/02 10:41:23;;;;;;;1.00;1.00;;;8.00;99.90;;;;;;5151816;27;20057;-82
2024/02/02 10:44:08;;;;;;;1.05;1.00;;;8.00;99.90;;;;;;5152801;27;20035;-83
2024/02/02 10:46:45;;;;;;;0.77;0.77;;;8.10;99.90;;;;;;5131899;27;20034;-82
2024/02/02 10:49:29;;;;;;;1.20;0.75;;;8.10;99.90;;;;;;5154992;27;20126;-81
2024/02/02 10:52:14;;;;;;;0.50;0.50;;;8.20;99.90;;;;;;5151643;27;20050;-82
2024/02/02 10:54:59;;;;;;;1.02;1.02;;;8.20;99.90;;;;;;5148564;27;20099;-80
2024/02/02 10:58:15;;;;;;;0.55;0.55;;;8.30;99.90;;;;;;5149109;27;20069;-81
2024/02/02 11:01:09;;;;;;;3.25;1.55;;;8.40;99.90;;;;;;5141566;27;20062;-82
2024/02/02 11:03:47;;;;;;;2.10;1.50;;;8.40;99.90;;;;;;5149732;27;20042;-82
2024/02/02 11:06:30;;;;;;;4.50;0.95;;;8.40;99.90;;;;;;5133787;27;20055;-80
2024/02/02 11:09:09;;;;;;;1.45;1.45;;;8.40;99.90;;;;;;5159831;27;20077;-81
2024/02/02 11:11:45;;;;;;;0.40;0.40;;;8.50;99.90;;;;;;5151044;27;20034;-82
2024/02/02 11:14:53;;;;;;;0.40;0.40;;;8.50;99.90;;;;;;5147879;27;20398;-81
2024/02/02 11:17:35;;;;;;;1.13;1.10;;;8.40;99.90;;;;;;5152882;27;20034;-83
2024/02/02 11:20:27;;;;;;;0.55;0.55;;;8.40;99.90;;;;;;5150239;27;20092;-80
2024/02/02 11:22:59;;;;;;;0.70;0.70;;;8.50;99.90;;;;;;5150883;27;20046;-79
2024/02/02 11:25:38;;;;;;;0.60;0.60;;;8.50;99.90;;;;;;5144253;27;20045;-82
2024/02/02 11:28:15;;;;;;;5.55;1.33;;;8.40;99.90;;;;;;5150609;27;20043;-81
2024/02/02 11:31:02;;;;;;;0.73;0.73;;;8.40;99.90;;;;;;5151997;27;20091;-80
2024/02/02 11:33:56;;;;;;;1.45;1.40;;;8.40;99.90;;;;;;5147447;27;20045;-80
2024/02/02 11:36:59;;;;;;;0.40;0.40;;;8.40;99.90;;;;;;5147750;27;20046;-81
2024/02/02 11:39:42;;;;;;;0.40;0.40;;;8.40;99.90;;;;;;5153776;27;20049;-80
2024/02/02 11:42:17;;;;;;;1.05;1.05;;;8.40;99.90;;;;;;5148792;27;20035;-81
2024/02/02 11:44:49;;;;;;;4.13;2.65;;;8.40;99.90;;;;;;5149717;27;20042;-79
2024/02/02 11:47:19;;;;;;;0.40;0.40;;;8.50;99.90;;;;;;5129351;27;20124;-80
2024/02/02 11:49:52;;;;;;;0.60;0.60;;;8.50;99.90;;;;;;5149283;27;20057;-80
2024/02/02 11:52:42;;;;;;;0.40;0.40;;;8.60;99.90;;;;;;5150748;27;20094;-79
2024/02/02 11:55:22;;;;;;;1.38;0.73;;;8.70;99.90;;;;;;5150608;27;20047;-78
2024/02/02 11:58:09;;;;;;;0.82;0.82;;;8.70;99.90;;;;;;5157192;27;20050;-80
2024/02/02 12:01:23;;;;;;;1.25;0.52;;;8.70;99.90;;;;;;5129134;27;20090;-82
2024/02/02 12:04:24;;;;;;;0.40;0.40;;;8.80;99.90;;;;;;5135464;27;20047;-81
2024/02/02 12:07:02;;;;;;;0.88;0.88;;;8.90;99.90;;;;;;5154002;27;20142;-82
2024/02/02 12:09:49;;;;;;;0.63;0.63;;;8.90;99.90;;;;;;5157909;27;20030;-80
2024/02/02 12:12:49;;;;;;;0.70;0.70;;;8.90;99.90;;;;;;5157349;27;20048;-81
2024/02/02 12:15:15;;;;;;;2.10;1.90;;;8.90;99.90;;;;;;5158711;27;20039;-81
2024/02/02 12:17:49;;;;;;;0.45;0.45;;;9.00;99.90;;;;;;5159618;27;20075;-79
2024/02/02 12:20:17;;;;;;;0.35;0.35;;;8.90;99.90;;;;;;5157568;27;20066;-83
2024/02/02 12:22:44;;;;;;;0.50;0.50;;;8.90;99.90;;;;;;5132731;27;20503;-81
2024/02/02 12:25:11;;;;;;;0.70;0.70;;;8.90;99.90;;;;;;5156603;27;20058;-80
2024/02/02 12:27:38;;;;;;;0.40;0.40;;;8.90;99.90;;;;;;5142020;27;20042;-83
2024/02/02 12:30:09;;;;;;;4.10;1.08;;;8.90;99.90;;;;;;5130224;27;20059;-82
2024/02/02 12:32:36;;;;;;;1.20;1.02;;;9.00;99.90;;;;;;5120027;27;20035;-82
2024/02/02 12:35:05;;;;;;;0.60;0.60;;;9.00;99.90;;;;;;5149654;27;20043;-81
2024/02/02 12:37:50;;;;;;;0.40;0.40;;;9.00;99.90;;;;;;5152751;27;20499;-81
2024/02/02 12:40:20;;;;;;;0.50;0.50;;;9.00;99.90;;;;;;5153391;27;20047;-82
2024/02/02 12:42:48;;;;;;;0.68;0.68;;;8.90;99.90;;;;;;5115638;27;20030;-80
2024/02/02 12:45:15;;;;;;;0.80;0.80;;;8.90;99.90;;;;;;5150973;27;20066;-78
2024/02/02 12:47:42;;;;;;;2.25;2.13;;;8.90;99.90;;;;;;5151065;27;20067;-80
2024/02/02 12:50:20;;;;;;;1.13;0.70;;;8.90;99.90;;;;;;5147824;27;20071;-80
2024/02/02 12:52:58;;;;;;;1.00;1.00;;;8.90;99.90;;;;;;5157524;27;20403;-80
2024/02/02 12:55:25;;;;;;;0.95;0.95;;;8.80;99.90;;;;;;5157478;27;20228;-81
2024/02/02 12:57:53;;;;;;;0.30;0.30;;;8.80;99.90;;;;;;5159213;27;20035;-78
2024/02/02 13:00:21;;;;;;;1.30;0.60;;;8.80;99.90;;;;;;5160534;27;20068;-79
2024/02/02 13:02:47;;;;;;;0.90;0.90;;;8.70;99.90;;;;;;5143607;27;20216;-81
2024/02/02 13:05:20;;;;;;;3.72;1.50;;;8.70;99.90;;;;;;5130315;27;20092;-82
2024/02/02 13:07:52;;;;;;;1.13;1.05;;;8.70;99.90;;;;;;5161370;27;20053;-81
2024/02/02 13:10:55;;;;;;;1.95;1.75;;;10.10;99.90;;;;;;5140644;27;20098;-82
2024/02/02 13:13:26;;;;;;;0.68;0.68;;;8.70;99.90;;;;;;5151018;27;20272;-82
2024/02/02 13:15:53;;;;;;;1.20;1.20;;;8.70;99.90;;;;;;5122673;27;20070;-81
2024/02/02 13:18:22;;;;;;;0.40;0.40;;;8.70;99.90;;;;;;5153214;27;20047;-79
2024/02/02 13:21:26;;;;;;;0.75;0.75;;;8.70;99.90;;;;;;5151292;27;20057;-81
2024/02/02 13:24:00;;;;;;;0.75;0.75;;;8.70;99.90;;;;;;5151434;27;20060;-81
2024/02/02 13:26:50;;;;;;;2.20;1.23;;;8.60;99.90;;;;;;5153789;27;20050;-79
2024/02/02 13:29:26;;;;;;;0.50;0.50;;;8.60;99.90;;;;;;5136366;27;20039;-81